PWSweather.com
Personal Weather Stations
Station Observations
WXGLH1124
Southern Oaks, Indianapolis, IN 46217

Southern OaksIndianapolis, IN 46217

Lat: 39.65113, Lon: -86.16866

Elevation: 720

Station Type: Vantage Pro2

High Low Average
Temperature 79.5°F26.4°C 64.1°F17.8°C 70.4°F21.3°C
Dew Point 67.3°F19.6°C 62.0°F16.7°C 64.3°F17.9°C
Winds 5.0 mph 8.0 kmh Calm Calm Calm ECalm E
Wind Gusts 9.0 mph14.5 kmh -- 1.0 mph1.6 kmh
Humidity 93% 62% 82%
Pressure 30.02 in1016.6 mb 29.93 in1013.5 mb -
Precipitation 0.00 in0.0 mm - -
Hour Temp Dew Point Humidity Winds Wind Gusts Pressure Precip Precip Rate Daily Precip Total
12:00 AM 66.8°F19.3°C 64.4°F18.0°C 92% Calm Calm -- 29.93 in1013.5 mb 0.01 in0.3 mm 0.00 in0.0 mm 0.01 in0.3 mm
12:05 AM 66.7°F19.3°C 64.3°F17.9°C 92% Calm Calm -- 29.93 in1013.5 mb 0.02 in0.5 mm 0.12 in3.0 mm 0.02 in0.5 mm
12:10 AM 66.7°F19.3°C 64.3°F17.9°C 92% Calm Calm -- 29.93 in1013.5 mb 0.01 in0.3 mm 0.00 in0.0 mm 0.02 in0.5 mm
12:15 AM 66.6°F19.2°C 64.2°F17.9°C 92% Calm Calm -- 29.93 in1013.5 mb 0.01 in0.3 mm 0.00 in0.0 mm 0.02 in0.5 mm
12:20 AM 66.6°F19.2°C 64.2°F17.9°C 92% Calm Calm -- 29.93 in1013.5 mb 0.01 in0.3 mm 0.00 in0.0 mm 0.02 in0.5 mm
12:25 AM 66.5°F19.2°C 64.1°F17.8°C 92% Calm Calm -- 29.93 in1013.5 mb 0.01 in0.3 mm 0.00 in0.0 mm 0.02 in0.5 mm
12:30 AM 66.5°F19.2°C 64.1°F17.8°C 92% Calm Calm -- 29.93 in1013.5 mb 0.01 in0.3 mm 0.00 in0.0 mm 0.02 in0.5 mm
12:35 AM 66.5°F19.2°C 64.1°F17.8°C 92% Calm Calm -- 29.93 in1013.5 mb 0.01 in0.3 mm 0.00 in0.0 mm 0.02 in0.5 mm
12:39 AM 66.5°F19.2°C 64.1°F17.8°C 92% Calm Calm -- 29.93 in1013.5 mb 0.01 in0.3 mm 0.00 in0.0 mm 0.02 in0.5 mm
12:45 AM 66.4°F19.1°C 64.0°F17.8°C 92% Calm Calm -- 29.93 in1013.5 mb 0.01 in0.3 mm 0.00 in0.0 mm 0.02 in0.5 mm
12:49 AM 66.4°F19.1°C 64.0°F17.8°C 92% Calm Calm -- 29.93 in1013.5 mb 0.01 in0.3 mm 0.00 in0.0 mm 0.02 in0.5 mm
12:55 AM 66.3°F19.1°C 63.9°F17.7°C 92% Calm Calm -- 29.93 in1013.5 mb 0.01 in0.3 mm 0.00 in0.0 mm 0.02 in0.5 mm
01:00 AM 66.3°F19.1°C 63.9°F17.7°C 92% Calm Calm -- 29.93 in1013.5 mb 0.01 in0.3 mm 0.00 in0.0 mm 0.02 in0.5 mm
01:04 AM 66.3°F19.1°C 63.9°F17.7°C 92% Calm Calm -- 29.93 in1013.5 mb 0.01 in0.3 mm 0.00 in0.0 mm 0.02 in0.5 mm
01:10 AM 66.3°F19.1°C 63.9°F17.7°C 92% Calm Calm -- 29.93 in1013.5 mb 0.01 in0.3 mm 0.00 in0.0 mm 0.02 in0.5 mm
01:14 AM 66.3°F19.1°C 63.9°F17.7°C 92% Calm Calm -- 29.93 in1013.5 mb 0.01 in0.3 mm 0.00 in0.0 mm 0.02 in0.5 mm
01:19 AM 66.3°F19.1°C 63.9°F17.7°C 92% Calm Calm -- 29.94 in1013.9 mb 0.01 in0.3 mm 0.00 in0.0 mm 0.02 in0.5 mm
01:25 AM 66.2°F19.0°C 63.8°F17.7°C 92% Calm Calm -- 29.94 in1013.9 mb 0.01 in0.3 mm 0.00 in0.0 mm 0.02 in0.5 mm
01:30 AM 66.2°F19.0°C 63.8°F17.7°C 92% Calm Calm -- 29.94 in1013.9 mb 0.01 in0.3 mm 0.00 in0.0 mm 0.02 in0.5 mm
01:35 AM 66.1°F18.9°C 63.7°F17.6°C 92% Calm Calm -- 29.94 in1013.9 mb 0.01 in0.3 mm 0.00 in0.0 mm 0.02 in0.5 mm
01:40 AM 66.1°F18.9°C 63.7°F17.6°C 92% Calm Calm -- 29.94 in1013.9 mb 0.01 in0.3 mm 0.00 in0.0 mm 0.02 in0.5 mm
01:45 AM 66.1°F18.9°C 63.7°F17.6°C 92% Calm Calm -- 29.94 in1013.9 mb 0.01 in0.3 mm 0.00 in0.0 mm 0.02 in0.5 mm
01:50 AM 66.1°F18.9°C 63.7°F17.6°C 92% Calm Calm -- 29.94 in1013.9 mb 0.01 in0.3 mm 0.00 in0.0 mm 0.02 in0.5 mm
01:55 AM 66.0°F18.9°C 63.6°F17.6°C 92% Calm Calm -- 29.94 in1013.9 mb 0.01 in0.3 mm 0.00 in0.0 mm 0.02 in0.5 mm
02:00 AM 66.0°F18.9°C 63.6°F17.6°C 92% Calm Calm -- 29.94 in1013.9 mb 0.01 in0.3 mm 0.00 in0.0 mm 0.02 in0.5 mm
02:04 AM 65.9°F18.8°C 63.5°F17.5°C 92% Calm Calm -- 29.94 in1013.9 mb 0.00 in0.0 mm 0.00 in0.0 mm 0.02 in0.5 mm
02:09 AM 65.9°F18.8°C 63.5°F17.5°C 92% Calm Calm -- 29.94 in1013.9 mb 0.00 in0.0 mm 0.00 in0.0 mm 0.02 in0.5 mm
02:15 AM 65.9°F18.8°C 63.5°F17.5°C 92% Calm Calm -- 29.94 in1013.9 mb 0.01 in0.3 mm 0.10 in2.5 mm 0.03 in0.8 mm
02:20 AM 65.9°F18.8°C 63.5°F17.5°C 92% Calm Calm -- 29.94 in1013.9 mb 0.01 in0.3 mm 0.00 in0.0 mm 0.03 in0.8 mm
02:24 AM 65.9°F18.8°C 63.5°F17.5°C 92% Calm Calm -- 29.94 in1013.9 mb 0.01 in0.3 mm 0.00 in0.0 mm 0.03 in0.8 mm
02:30 AM 65.9°F18.8°C 63.5°F17.5°C 92% Calm Calm -- 29.94 in1013.9 mb 0.01 in0.3 mm 0.00 in0.0 mm 0.03 in0.8 mm
02:34 AM 65.8°F18.8°C 63.4°F17.4°C 92% Calm Calm -- 29.93 in1013.5 mb 0.01 in0.3 mm 0.00 in0.0 mm 0.03 in0.8 mm
02:40 AM 65.8°F18.8°C 63.4°F17.4°C 92% Calm Calm -- 29.94 in1013.9 mb 0.01 in0.3 mm 0.00 in0.0 mm 0.03 in0.8 mm
02:45 AM 65.7°F18.7°C 63.3°F17.4°C 92% Calm Calm -- 29.94 in1013.9 mb 0.01 in0.3 mm 0.00 in0.0 mm 0.03 in0.8 mm
02:49 AM 65.7°F18.7°C 63.3°F17.4°C 92% Calm Calm -- 29.94 in1013.9 mb 0.01 in0.3 mm 0.00 in0.0 mm 0.03 in0.8 mm
02:55 AM 65.7°F18.7°C 63.3°F17.4°C 92% Calm Calm -- 29.94 in1013.9 mb 0.01 in0.3 mm 0.00 in0.0 mm 0.03 in0.8 mm
02:59 AM 65.7°F18.7°C 63.3°F17.4°C 92% Calm Calm -- 29.94 in1013.9 mb 0.01 in0.3 mm 0.00 in0.0 mm 0.03 in0.8 mm
03:05 AM 65.6°F18.7°C 63.2°F17.3°C 92% Calm Calm -- 29.94 in1013.9 mb 0.01 in0.3 mm 0.00 in0.0 mm 0.03 in0.8 mm
03:10 AM 65.6°F18.7°C 63.2°F17.3°C 92% Calm Calm -- 29.94 in1013.9 mb 0.01 in0.3 mm 0.00 in0.0 mm 0.03 in0.8 mm
03:15 AM 65.5°F18.6°C 63.1°F17.3°C 92% Calm Calm -- 29.94 in1013.9 mb 0.00 in0.0 mm 0.00 in0.0 mm 0.03 in0.8 mm
03:20 AM 65.4°F18.6°C 63.0°F17.2°C 92% Calm Calm -- 29.94 in1013.9 mb 0.00 in0.0 mm 0.00 in0.0 mm 0.03 in0.8 mm
03:25 AM 65.4°F18.6°C 63.3°F17.4°C 93% Calm Calm -- 29.94 in1013.9 mb 0.00 in0.0 mm 0.00 in0.0 mm 0.03 in0.8 mm
03:29 AM 65.4°F18.6°C 63.3°F17.4°C 93% Calm Calm -- 29.94 in1013.9 mb 0.01 in0.3 mm 0.15 in3.8 mm 0.04 in1.0 mm
03:35 AM 65.4°F18.6°C 63.3°F17.4°C 93% Calm Calm -- 29.94 in1013.9 mb 0.01 in0.3 mm 0.00 in0.0 mm 0.04 in1.0 mm
03:40 AM 65.3°F18.5°C 62.9°F17.2°C 92% Calm Calm -- 29.94 in1013.9 mb 0.01 in0.3 mm 0.00 in0.0 mm 0.04 in1.0 mm
03:45 AM 65.3°F18.5°C 62.9°F17.2°C 92% Calm Calm -- 29.94 in1013.9 mb 0.01 in0.3 mm 0.00 in0.0 mm 0.04 in1.0 mm
03:50 AM 65.2°F18.4°C 62.8°F17.1°C 92% Calm Calm -- 29.95 in1014.2 mb 0.01 in0.3 mm 0.00 in0.0 mm 0.04 in1.0 mm
03:54 AM 65.2°F18.4°C 62.8°F17.1°C 92% Calm Calm -- 29.94 in1013.9 mb 0.01 in0.3 mm 0.00 in0.0 mm 0.04 in1.0 mm
04:00 AM 65.2°F18.4°C 62.8°F17.1°C 92% Calm Calm -- 29.94 in1013.9 mb 0.01 in0.3 mm 0.00 in0.0 mm 0.04 in1.0 mm
04:05 AM 65.2°F18.4°C 62.8°F17.1°C 92% Calm Calm -- 29.94 in1013.9 mb 0.01 in0.3 mm 0.00 in0.0 mm 0.04 in1.0 mm
04:10 AM 65.2°F18.4°C 62.8°F17.1°C 92% Calm Calm -- 29.95 in1014.2 mb 0.01 in0.3 mm 0.00 in0.0 mm 0.04 in1.0 mm
04:15 AM 65.2°F18.4°C 62.8°F17.1°C 92% Calm Calm -- 29.95 in1014.2 mb 0.01 in0.3 mm 0.00 in0.0 mm 0.04 in1.0 mm
04:20 AM 65.1°F18.4°C 62.7°F17.1°C 92% Calm Calm -- 29.94 in1013.9 mb 0.01 in0.3 mm 0.00 in0.0 mm 0.04 in1.0 mm
04:25 AM 65.2°F18.4°C 62.8°F17.1°C 92% Calm Calm -- 29.94 in1013.9 mb 0.01 in0.3 mm 0.00 in0.0 mm 0.04 in1.0 mm
04:30 AM 65.2°F18.4°C 62.8°F17.1°C 92% Calm Calm -- 29.94 in1013.9 mb 0.00 in0.0 mm 0.00 in0.0 mm 0.04 in1.0 mm
04:35 AM 65.1°F18.4°C 62.7°F17.1°C 92% Calm Calm -- 29.94 in1013.9 mb 0.00 in0.0 mm 0.00 in0.0 mm 0.04 in1.0 mm
04:40 AM 65.1°F18.4°C 62.7°F17.1°C 92% Calm Calm -- 29.95 in1014.2 mb 0.00 in0.0 mm 0.00 in0.0 mm 0.04 in1.0 mm
04:45 AM 65.0°F18.3°C 62.6°F17.0°C 92% Calm Calm -- 29.95 in1014.2 mb 0.00 in0.0 mm 0.00 in0.0 mm 0.04 in1.0 mm
04:50 AM 65.0°F18.3°C 62.9°F17.2°C 93% Calm Calm -- 29.95 in1014.2 mb 0.01 in0.3 mm 0.12 in3.0 mm 0.05 in1.3 mm
04:55 AM 65.0°F18.3°C 62.9°F17.2°C 93% Calm Calm -- 29.95 in1014.2 mb 0.01 in0.3 mm 0.00 in0.0 mm 0.05 in1.3 mm
05:00 AM 64.9°F18.3°C 62.8°F17.1°C 93% Calm Calm -- 29.95 in1014.2 mb 0.01 in0.3 mm 0.00 in0.0 mm 0.05 in1.3 mm
05:05 AM 64.9°F18.3°C 62.8°F17.1°C 93% Calm Calm -- 29.95 in1014.2 mb 0.01 in0.3 mm 0.00 in0.0 mm 0.05 in1.3 mm
05:10 AM 64.8°F18.2°C 62.7°F17.1°C 93% Calm Calm -- 29.95 in1014.2 mb 0.01 in0.3 mm 0.00 in0.0 mm 0.05 in1.3 mm
05:15 AM 64.7°F18.2°C 62.6°F17.0°C 93% Calm Calm -- 29.95 in1014.2 mb 0.01 in0.3 mm 0.00 in0.0 mm 0.05 in1.3 mm
05:20 AM 64.7°F18.2°C 62.3°F16.8°C 92% Calm Calm -- 29.95 in1014.2 mb 0.01 in0.3 mm 0.00 in0.0 mm 0.05 in1.3 mm
05:25 AM 64.6°F18.1°C 62.2°F16.8°C 92% Calm Calm -- 29.95 in1014.2 mb 0.01 in0.3 mm 0.00 in0.0 mm 0.05 in1.3 mm
05:29 AM 64.6°F18.1°C 62.2°F16.8°C 92% Calm Calm -- 29.95 in1014.2 mb 0.01 in0.3 mm 0.00 in0.0 mm 0.05 in1.3 mm
05:34 AM 64.5°F18.1°C 62.1°F16.7°C 92% Calm Calm -- 29.96 in1014.6 mb 0.01 in0.3 mm 0.00 in0.0 mm 0.05 in1.3 mm
05:40 AM 64.5°F18.1°C 62.1°F16.7°C 92% Calm Calm -- 29.96 in1014.6 mb 0.01 in0.3 mm 0.00 in0.0 mm 0.05 in1.3 mm
05:44 AM 64.5°F18.1°C 62.1°F16.7°C 92% Calm Calm -- 29.96 in1014.6 mb 0.01 in0.3 mm 0.00 in0.0 mm 0.05 in1.3 mm
05:50 AM 64.5°F18.1°C 62.1°F16.7°C 92% Calm Calm -- 29.96 in1014.6 mb 0.00 in0.0 mm 0.00 in0.0 mm 0.05 in1.3 mm
05:55 AM 64.5°F18.1°C 62.1°F16.7°C 92% Calm Calm -- 29.96 in1014.6 mb 0.00 in0.0 mm 0.00 in0.0 mm 0.05 in1.3 mm
06:00 AM 64.4°F18.0°C 62.0°F16.7°C 92% Calm Calm -- 29.96 in1014.6 mb 0.00 in0.0 mm 0.00 in0.0 mm 0.05 in1.3 mm
06:05 AM 64.4°F18.0°C 62.0°F16.7°C 92% Calm Calm -- 29.97 in1014.9 mb 0.00 in0.0 mm 0.00 in0.0 mm 0.05 in1.3 mm
06:09 AM 64.3°F17.9°C 62.2°F16.8°C 93% Calm Calm -- 29.97 in1014.9 mb 0.00 in0.0 mm 0.00 in0.0 mm 0.05 in1.3 mm
06:15 AM 64.3°F17.9°C 62.2°F16.8°C 93% 2.0 mph N3.2 kmh N 2.0 mph3.2 kmh 29.97 in1014.9 mb 0.01 in0.3 mm 0.10 in2.5 mm 0.06 in1.5 mm
06:19 AM 64.2°F17.9°C 62.1°F16.7°C 93% Calm Calm 2.0 mph3.2 kmh 29.97 in1014.9 mb 0.01 in0.3 mm 0.00 in0.0 mm 0.06 in1.5 mm
06:24 AM 64.2°F17.9°C 62.1°F16.7°C 93% Calm Calm -- 29.97 in1014.9 mb 0.01 in0.3 mm 0.00 in0.0 mm 0.06 in1.5 mm
06:30 AM 64.1°F17.8°C 62.0°F16.7°C 93% Calm Calm -- 29.97 in1014.9 mb 0.01 in0.3 mm 0.00 in0.0 mm 0.06 in1.5 mm
06:35 AM 64.2°F17.9°C 62.1°F16.7°C 93% Calm Calm 2.0 mph3.2 kmh 29.97 in1014.9 mb 0.01 in0.3 mm 0.00 in0.0 mm 0.06 in1.5 mm
06:40 AM 64.2°F17.9°C 62.1°F16.7°C 93% Calm Calm -- 29.98 in1015.2 mb 0.01 in0.3 mm 0.00 in0.0 mm 0.06 in1.5 mm
06:45 AM 64.2°F17.9°C 62.1°F16.7°C 93% Calm Calm -- 29.98 in1015.2 mb 0.01 in0.3 mm 0.00 in0.0 mm 0.06 in1.5 mm
06:50 AM 64.2°F17.9°C 62.1°F16.7°C 93% Calm Calm -- 29.98 in1015.2 mb 0.01 in0.3 mm 0.00 in0.0 mm 0.06 in1.5 mm
06:55 AM 64.2°F17.9°C 62.1°F16.7°C 93% Calm Calm -- 29.98 in1015.2 mb 0.01 in0.3 mm 0.00 in0.0 mm 0.06 in1.5 mm
07:00 AM 64.3°F17.9°C 62.2°F16.8°C 93% Calm Calm -- 29.98 in1015.2 mb 0.01 in0.3 mm 0.00 in0.0 mm 0.06 in1.5 mm
07:05 AM 64.3°F17.9°C 62.2°F16.8°C 93% Calm Calm -- 29.98 in1015.2 mb 0.01 in0.3 mm 0.00 in0.0 mm 0.06 in1.5 mm
07:10 AM 64.3°F17.9°C 62.2°F16.8°C 93% Calm Calm -- 29.98 in1015.2 mb 0.01 in0.3 mm 0.00 in0.0 mm 0.06 in1.5 mm
07:14 AM 64.3°F17.9°C 62.2°F16.8°C 93% Calm Calm -- 29.98 in1015.2 mb 0.00 in0.0 mm 0.00 in0.0 mm 0.06 in1.5 mm
07:20 AM 64.3°F17.9°C 62.2°F16.8°C 93% Calm Calm 2.0 mph3.2 kmh 29.98 in1015.2 mb 0.00 in0.0 mm 0.00 in0.0 mm 0.06 in1.5 mm
07:24 AM 64.3°F17.9°C 62.2°F16.8°C 93% Calm Calm -- 29.98 in1015.2 mb 0.00 in0.0 mm 0.00 in0.0 mm 0.06 in1.5 mm
07:29 AM 64.3°F17.9°C 62.2°F16.8°C 93% Calm Calm 1.0 mph1.6 kmh 29.98 in1015.2 mb 0.00 in0.0 mm 0.00 in0.0 mm 0.06 in1.5 mm
07:35 AM 64.3°F17.9°C 62.2°F16.8°C 93% Calm Calm 1.0 mph1.6 kmh 29.98 in1015.2 mb 0.00 in0.0 mm 0.00 in0.0 mm 0.06 in1.5 mm
07:40 AM 64.3°F17.9°C 62.2°F16.8°C 93% Calm Calm -- 29.98 in1015.2 mb 0.00 in0.0 mm 0.00 in0.0 mm 0.06 in1.5 mm
07:45 AM 64.4°F18.0°C 62.3°F16.8°C 93% 2.0 mph NE3.2 kmh NE 3.0 mph4.8 kmh 29.98 in1015.2 mb 0.00 in0.0 mm 0.00 in0.0 mm 0.06 in1.5 mm
07:50 AM 64.4°F18.0°C 62.3°F16.8°C 93% Calm Calm 1.0 mph1.6 kmh 29.99 in1015.6 mb 0.01 in0.3 mm 0.12 in3.0 mm 0.07 in1.8 mm
07:55 AM 64.4°F18.0°C 62.3°F16.8°C 93% Calm Calm 1.0 mph1.6 kmh 29.98 in1015.2 mb 0.01 in0.3 mm 0.00 in0.0 mm 0.07 in1.8 mm
07:59 AM 64.4°F18.0°C 62.3°F16.8°C 93% 1.0 mph NE1.6 kmh NE 2.0 mph3.2 kmh 29.98 in1015.2 mb 0.01 in0.3 mm 0.00 in0.0 mm 0.07 in1.8 mm
08:05 AM 64.5°F18.1°C 62.1°F16.7°C 92% Calm Calm -- 29.99 in1015.6 mb 0.01 in0.3 mm 0.00 in0.0 mm 0.07 in1.8 mm
08:10 AM 64.6°F18.1°C 62.2°F16.8°C 92% Calm Calm 1.0 mph1.6 kmh 29.99 in1015.6 mb 0.01 in0.3 mm 0.00 in0.0 mm 0.07 in1.8 mm
08:15 AM 64.7°F18.2°C 62.3°F16.8°C 92% Calm Calm -- 29.98 in1015.2 mb 0.01 in0.3 mm 0.00 in0.0 mm 0.07 in1.8 mm
08:20 AM 64.8°F18.2°C 62.7°F17.1°C 93% Calm Calm -- 29.98 in1015.2 mb 0.01 in0.3 mm 0.00 in0.0 mm 0.07 in1.8 mm
08:24 AM 64.8°F18.2°C 62.7°F17.1°C 93% Calm Calm -- 29.99 in1015.6 mb 0.01 in0.3 mm 0.00 in0.0 mm 0.07 in1.8 mm
08:30 AM 64.8°F18.2°C 62.7°F17.1°C 93% Calm Calm -- 29.99 in1015.6 mb 0.01 in0.3 mm 0.00 in0.0 mm 0.07 in1.8 mm
08:35 AM 64.9°F18.3°C 62.8°F17.1°C 93% Calm Calm 1.0 mph1.6 kmh 29.99 in1015.6 mb 0.01 in0.3 mm 0.00 in0.0 mm 0.07 in1.8 mm
08:40 AM 65.0°F18.3°C 62.9°F17.2°C 93% Calm Calm -- 30.00 in1015.9 mb 0.01 in0.3 mm 0.00 in0.0 mm 0.07 in1.8 mm
08:45 AM 65.0°F18.3°C 62.9°F17.2°C 93% Calm Calm -- 30.00 in1015.9 mb 0.01 in0.3 mm 0.00 in0.0 mm 0.07 in1.8 mm
08:50 AM 65.1°F18.4°C 62.7°F17.1°C 92% Calm Calm -- 30.00 in1015.9 mb 0.00 in0.0 mm 0.00 in0.0 mm 0.07 in1.8 mm
08:55 AM 65.2°F18.4°C 62.8°F17.1°C 92% Calm Calm -- 30.00 in1015.9 mb 0.00 in0.0 mm 0.00 in0.0 mm 0.07 in1.8 mm
08:59 AM 65.2°F18.4°C 62.8°F17.1°C 92% Calm Calm -- 30.00 in1015.9 mb 0.00 in0.0 mm 0.00 in0.0 mm 0.07 in1.8 mm
09:05 AM 65.2°F18.4°C 62.8°F17.1°C 92% Calm Calm -- 30.01 in1016.3 mb 0.00 in0.0 mm 0.00 in0.0 mm 0.07 in1.8 mm
09:10 AM 65.4°F18.6°C 63.0°F17.2°C 92% Calm Calm -- 30.01 in1016.3 mb 0.00 in0.0 mm 0.00 in0.0 mm 0.07 in1.8 mm
09:15 AM 65.3°F18.5°C 62.9°F17.2°C 92% Calm Calm -- 30.01 in1016.3 mb 0.00 in0.0 mm 0.00 in0.0 mm 0.07 in1.8 mm
09:20 AM 65.4°F18.6°C 63.3°F17.4°C 93% Calm Calm -- 30.01 in1016.3 mb 0.00 in0.0 mm 0.00 in0.0 mm 0.07 in1.8 mm
09:25 AM 65.4°F18.6°C 63.3°F17.4°C 93% Calm Calm -- 30.00 in1015.9 mb 0.00 in0.0 mm 0.00 in0.0 mm 0.07 in1.8 mm
09:30 AM 65.5°F18.6°C 63.1°F17.3°C 92% Calm Calm -- 30.01 in1016.3 mb 0.01 in0.3 mm 0.12 in3.0 mm 0.08 in2.0 mm
09:34 AM 65.5°F18.6°C 63.1°F17.3°C 92% Calm Calm -- 30.00 in1015.9 mb 0.01 in0.3 mm 0.00 in0.0 mm 0.08 in2.0 mm
09:40 AM 65.7°F18.7°C 63.3°F17.4°C 92% Calm Calm -- 30.01 in1016.3 mb 0.01 in0.3 mm 0.00 in0.0 mm 0.08 in2.0 mm
09:45 AM 65.8°F18.8°C 63.4°F17.4°C 92% Calm Calm -- 30.01 in1016.3 mb 0.01 in0.3 mm 0.00 in0.0 mm 0.08 in2.0 mm
09:50 AM 65.9°F18.8°C 63.5°F17.5°C 92% Calm Calm -- 30.01 in1016.3 mb 0.01 in0.3 mm 0.00 in0.0 mm 0.08 in2.0 mm
09:55 AM 66.3°F19.1°C 63.9°F17.7°C 92% Calm Calm -- 30.01 in1016.3 mb 0.01 in0.3 mm 0.00 in0.0 mm 0.08 in2.0 mm
10:00 AM 66.4°F19.1°C 64.0°F17.8°C 92% 2.0 mph NE3.2 kmh NE 2.0 mph3.2 kmh 30.01 in1016.3 mb 0.01 in0.3 mm 0.00 in0.0 mm 0.08 in2.0 mm
10:05 AM 66.6°F19.2°C 64.2°F17.9°C 92% Calm Calm -- 30.01 in1016.3 mb 0.01 in0.3 mm 0.00 in0.0 mm 0.08 in2.0 mm
10:10 AM 66.8°F19.3°C 64.4°F18.0°C 92% Calm Calm 1.0 mph1.6 kmh 30.02 in1016.6 mb 0.01 in0.3 mm 0.00 in0.0 mm 0.08 in2.0 mm
10:15 AM 67.3°F19.6°C 64.6°F18.1°C 91% Calm Calm 1.0 mph1.6 kmh 30.02 in1016.6 mb 0.01 in0.3 mm 0.00 in0.0 mm 0.08 in2.0 mm
10:20 AM 67.7°F19.8°C 64.7°F18.2°C 90% 1.0 mph NE1.6 kmh NE 3.0 mph4.8 kmh 30.02 in1016.6 mb 0.01 in0.3 mm 0.00 in0.0 mm 0.08 in2.0 mm
10:25 AM 68.0°F20.0°C 64.6°F18.1°C 89% 2.0 mph NE3.2 kmh NE 4.0 mph6.4 kmh 30.02 in1016.6 mb 0.01 in0.3 mm 0.00 in0.0 mm 0.08 in2.0 mm
10:30 AM 68.5°F20.3°C 64.8°F18.2°C 88% 3.0 mph SW4.8 kmh SW 3.0 mph4.8 kmh 30.02 in1016.6 mb 0.00 in0.0 mm 0.00 in0.0 mm 0.08 in2.0 mm
10:35 AM 68.7°F20.4°C 64.7°F18.2°C 87% Calm Calm 4.0 mph6.4 kmh 30.02 in1016.6 mb 0.00 in0.0 mm 0.00 in0.0 mm 0.08 in2.0 mm
10:40 AM 68.8°F20.4°C 64.8°F18.2°C 87% Calm Calm 3.0 mph4.8 kmh 30.02 in1016.6 mb 0.00 in0.0 mm 0.00 in0.0 mm 0.08 in2.0 mm
10:45 AM 68.8°F20.4°C 65.1°F18.4°C 88% 2.0 mph SW3.2 kmh SW 2.0 mph3.2 kmh 30.02 in1016.6 mb 0.00 in0.0 mm 0.00 in0.0 mm 0.08 in2.0 mm
10:50 AM 69.1°F20.6°C 65.4°F18.6°C 88% Calm Calm -- 30.01 in1016.3 mb 0.00 in0.0 mm 0.00 in0.0 mm 0.08 in2.0 mm
10:55 AM 69.4°F20.8°C 65.4°F18.6°C 87% 1.0 mph SW1.6 kmh SW 1.0 mph1.6 kmh 30.02 in1016.6 mb 0.00 in0.0 mm 0.00 in0.0 mm 0.08 in2.0 mm
11:00 AM 69.6°F20.9°C 64.9°F18.3°C 85% Calm Calm 3.0 mph4.8 kmh 30.02 in1016.6 mb 0.00 in0.0 mm 0.00 in0.0 mm 0.08 in2.0 mm
11:05 AM 70.1°F21.2°C 65.7°F18.7°C 86% Calm Calm 1.0 mph1.6 kmh 30.02 in1016.6 mb 0.01 in0.3 mm 0.12 in3.0 mm 0.09 in2.3 mm
11:09 AM 70.2°F21.2°C 65.1°F18.4°C 84% Calm Calm 1.0 mph1.6 kmh 30.02 in1016.6 mb 0.01 in0.3 mm 0.00 in0.0 mm 0.09 in2.3 mm
11:15 AM 70.4°F21.3°C 65.3°F18.5°C 84% Calm Calm 5.0 mph8.0 kmh 30.02 in1016.6 mb 0.01 in0.3 mm 0.00 in0.0 mm 0.09 in2.3 mm
11:20 AM 70.6°F21.4°C 65.5°F18.6°C 84% 4.0 mph SW6.4 kmh SW 4.0 mph6.4 kmh 30.02 in1016.6 mb 0.01 in0.3 mm 0.00 in0.0 mm 0.09 in2.3 mm
11:25 AM 70.4°F21.3°C 64.7°F18.2°C 82% 2.0 mph SW3.2 kmh SW 4.0 mph6.4 kmh 30.02 in1016.6 mb 0.01 in0.3 mm 0.00 in0.0 mm 0.09 in2.3 mm
11:30 AM 70.4°F21.3°C 65.0°F18.3°C 83% Calm Calm 4.0 mph6.4 kmh 30.02 in1016.6 mb 0.01 in0.3 mm 0.00 in0.0 mm 0.09 in2.3 mm
11:35 AM 70.6°F21.4°C 64.8°F18.2°C 82% Calm Calm 2.0 mph3.2 kmh 30.02 in1016.6 mb 0.01 in0.3 mm 0.00 in0.0 mm 0.09 in2.3 mm
11:40 AM 70.8°F21.6°C 64.7°F18.2°C 81% Calm Calm -- 30.02 in1016.6 mb 0.01 in0.3 mm 0.00 in0.0 mm 0.09 in2.3 mm
11:45 AM 71.1°F21.7°C 65.0°F18.3°C 81% Calm Calm -- 30.02 in1016.6 mb 0.01 in0.3 mm 0.00 in0.0 mm 0.09 in2.3 mm
11:50 AM 71.3°F21.8°C 64.8°F18.2°C 80% 1.0 mph SW1.6 kmh SW 2.0 mph3.2 kmh 30.01 in1016.3 mb 0.01 in0.3 mm 0.00 in0.0 mm 0.09 in2.3 mm
11:55 AM 71.7°F22.1°C 65.2°F18.4°C 80% Calm Calm 1.0 mph1.6 kmh 30.02 in1016.6 mb 0.01 in0.3 mm 0.00 in0.0 mm 0.09 in2.3 mm
12:00 PM 72.7°F22.6°C 65.8°F18.8°C 79% 1.0 mph SW1.6 kmh SW 2.0 mph3.2 kmh 30.01 in1016.3 mb 0.01 in0.3 mm 0.00 in0.0 mm 0.09 in2.3 mm
12:05 PM 73.0°F22.8°C 65.4°F18.6°C 77% Calm Calm -- 30.02 in1016.6 mb 0.00 in0.0 mm 0.00 in0.0 mm 0.09 in2.3 mm
12:10 PM 72.9°F22.7°C 64.5°F18.1°C 75% Calm Calm 1.0 mph1.6 kmh 30.02 in1016.6 mb 0.00 in0.0 mm 0.00 in0.0 mm 0.09 in2.3 mm
12:14 PM 72.8°F22.7°C 64.8°F18.2°C 76% Calm Calm 2.0 mph3.2 kmh 30.02 in1016.6 mb 0.01 in0.3 mm 0.15 in3.8 mm 0.10 in2.5 mm
12:20 PM 72.6°F22.6°C 65.0°F18.3°C 77% Calm Calm 1.0 mph1.6 kmh 30.01 in1016.3 mb 0.01 in0.3 mm 0.00 in0.0 mm 0.10 in2.5 mm
12:24 PM 72.6°F22.6°C 65.0°F18.3°C 77% Calm Calm -- 30.01 in1016.3 mb 0.01 in0.3 mm 0.00 in0.0 mm 0.10 in2.5 mm
12:30 PM 72.7°F22.6°C 64.7°F18.2°C 76% Calm Calm 3.0 mph4.8 kmh 30.01 in1016.3 mb 0.01 in0.3 mm 0.00 in0.0 mm 0.10 in2.5 mm
12:35 PM 72.6°F22.6°C 64.6°F18.1°C 76% Calm Calm 1.0 mph1.6 kmh 30.01 in1016.3 mb 0.01 in0.3 mm 0.00 in0.0 mm 0.10 in2.5 mm
12:40 PM 72.6°F22.6°C 65.0°F18.3°C 77% Calm Calm -- 30.01 in1016.3 mb 0.01 in0.3 mm 0.00 in0.0 mm 0.10 in2.5 mm
12:45 PM 72.9°F22.7°C 65.7°F18.7°C 78% Calm Calm -- 30.01 in1016.3 mb 0.01 in0.3 mm 0.00 in0.0 mm 0.10 in2.5 mm
12:50 PM 73.5°F23.1°C 65.9°F18.8°C 77% Calm Calm 1.0 mph1.6 kmh 30.01 in1016.3 mb 0.01 in0.3 mm 0.00 in0.0 mm 0.10 in2.5 mm
12:55 PM 73.7°F23.2°C 64.9°F18.3°C 74% Calm Calm 1.0 mph1.6 kmh 30.01 in1016.3 mb 0.01 in0.3 mm 0.00 in0.0 mm 0.10 in2.5 mm
01:00 PM 73.9°F23.3°C 65.5°F18.6°C 75% Calm Calm -- 30.01 in1016.3 mb 0.01 in0.3 mm 0.00 in0.0 mm 0.10 in2.5 mm
01:05 PM 74.4°F23.6°C 66.0°F18.9°C 75% Calm Calm 1.0 mph1.6 kmh 30.01 in1016.3 mb 0.01 in0.3 mm 0.00 in0.0 mm 0.10 in2.5 mm
01:10 PM 75.0°F23.9°C 65.4°F18.6°C 72% 1.0 mph NNE1.6 kmh NNE 1.0 mph1.6 kmh 30.01 in1016.3 mb 0.01 in0.3 mm 0.00 in0.0 mm 0.10 in2.5 mm
01:15 PM 75.2°F24.0°C 65.6°F18.7°C 72% 1.0 mph NNE1.6 kmh NNE 2.0 mph3.2 kmh 30.01 in1016.3 mb 0.00 in0.0 mm 0.00 in0.0 mm 0.10 in2.5 mm
01:20 PM 75.2°F24.0°C 65.6°F18.7°C 72% Calm Calm 1.0 mph1.6 kmh 30.01 in1016.3 mb 0.00 in0.0 mm 0.00 in0.0 mm 0.10 in2.5 mm
01:24 PM 75.3°F24.1°C 66.1°F18.9°C 73% 1.0 mph NNE1.6 kmh NNE 1.0 mph1.6 kmh 30.01 in1016.3 mb 0.00 in0.0 mm 0.00 in0.0 mm 0.10 in2.5 mm
01:30 PM 75.4°F24.1°C 64.9°F18.3°C 70% Calm Calm 3.0 mph4.8 kmh 30.01 in1016.3 mb 0.01 in0.3 mm 0.10 in2.5 mm 0.11 in2.8 mm
01:35 PM 75.8°F24.3°C 65.3°F18.5°C 70% 1.0 mph S1.6 kmh S 1.0 mph1.6 kmh 30.01 in1016.3 mb 0.01 in0.3 mm 0.00 in0.0 mm 0.11 in2.8 mm
01:40 PM 76.0°F24.4°C 65.5°F18.6°C 70% 2.0 mph SW3.2 kmh SW 2.0 mph3.2 kmh 30.01 in1016.3 mb 0.01 in0.3 mm 0.00 in0.0 mm 0.11 in2.8 mm
01:45 PM 76.1°F24.5°C 65.2°F18.4°C 69% 3.0 mph SW4.8 kmh SW 4.0 mph6.4 kmh 30.00 in1015.9 mb 0.01 in0.3 mm 0.00 in0.0 mm 0.11 in2.8 mm
01:50 PM 76.1°F24.5°C 66.0°F18.9°C 71% Calm Calm 1.0 mph1.6 kmh 30.00 in1015.9 mb 0.01 in0.3 mm 0.00 in0.0 mm 0.11 in2.8 mm
01:55 PM 75.9°F24.4°C 65.0°F18.3°C 69% 1.0 mph SW1.6 kmh SW 2.0 mph3.2 kmh 30.00 in1015.9 mb 0.01 in0.3 mm 0.00 in0.0 mm 0.11 in2.8 mm
01:59 PM 75.4°F24.1°C 65.4°F18.6°C 71% Calm Calm 1.0 mph1.6 kmh 30.00 in1015.9 mb 0.01 in0.3 mm 0.00 in0.0 mm 0.11 in2.8 mm
02:05 PM 75.1°F23.9°C 65.9°F18.8°C 73% Calm Calm 1.0 mph1.6 kmh 30.00 in1015.9 mb 0.01 in0.3 mm 0.00 in0.0 mm 0.11 in2.8 mm
02:10 PM 75.0°F23.9°C 65.4°F18.6°C 72% Calm Calm 1.0 mph1.6 kmh 30.00 in1015.9 mb 0.01 in0.3 mm 0.00 in0.0 mm 0.11 in2.8 mm
02:14 PM 75.2°F24.0°C 66.0°F18.9°C 73% 1.0 mph SW1.6 kmh SW 1.0 mph1.6 kmh 29.99 in1015.6 mb 0.01 in0.3 mm 0.00 in0.0 mm 0.11 in2.8 mm
02:20 PM 75.7°F24.3°C 65.6°F18.7°C 71% Calm Calm -- 29.99 in1015.6 mb 0.01 in0.3 mm 0.00 in0.0 mm 0.11 in2.8 mm
02:25 PM 76.1°F24.5°C 65.6°F18.7°C 70% 1.0 mph SW1.6 kmh SW 1.0 mph1.6 kmh 29.99 in1015.6 mb 0.01 in0.3 mm 0.00 in0.0 mm 0.11 in2.8 mm
02:30 PM 76.1°F24.5°C 66.0°F18.9°C 71% 1.0 mph SW1.6 kmh SW 1.0 mph1.6 kmh 29.99 in1015.6 mb 0.01 in0.3 mm 0.00 in0.0 mm 0.11 in2.8 mm
02:35 PM 76.0°F24.4°C 65.9°F18.8°C 71% 1.0 mph SW1.6 kmh SW 1.0 mph1.6 kmh 30.00 in1015.9 mb 0.01 in0.3 mm 0.00 in0.0 mm 0.11 in2.8 mm
02:40 PM 75.9°F24.4°C 65.8°F18.8°C 71% Calm Calm -- 30.00 in1015.9 mb 0.01 in0.3 mm 0.00 in0.0 mm 0.11 in2.8 mm
02:44 PM 75.9°F24.4°C 65.8°F18.8°C 71% Calm Calm -- 29.99 in1015.6 mb 0.01 in0.3 mm 0.00 in0.0 mm 0.11 in2.8 mm
02:49 PM 75.9°F24.4°C 65.8°F18.8°C 71% 3.0 mph SW4.8 kmh SW 3.0 mph4.8 kmh 29.99 in1015.6 mb 0.01 in0.3 mm 0.00 in0.0 mm 0.11 in2.8 mm
02:55 PM 75.8°F24.3°C 64.9°F18.3°C 69% Calm Calm 2.0 mph3.2 kmh 29.99 in1015.6 mb 0.01 in0.3 mm 0.00 in0.0 mm 0.11 in2.8 mm
03:00 PM 75.8°F24.3°C 65.3°F18.5°C 70% Calm Calm 1.0 mph1.6 kmh 29.99 in1015.6 mb 0.01 in0.3 mm 0.00 in0.0 mm 0.11 in2.8 mm
03:05 PM 76.0°F24.4°C 65.5°F18.6°C 70% Calm Calm -- 29.99 in1015.6 mb 0.01 in0.3 mm 0.00 in0.0 mm 0.11 in2.8 mm
03:09 PM 76.1°F24.5°C 65.6°F18.7°C 70% 1.0 mph SW1.6 kmh SW 2.0 mph3.2 kmh 29.99 in1015.6 mb 0.01 in0.3 mm 0.00 in0.0 mm 0.11 in2.8 mm
03:15 PM 76.6°F24.8°C 66.1°F18.9°C 70% 3.0 mph SW4.8 kmh SW 3.0 mph4.8 kmh 29.99 in1015.6 mb 0.01 in0.3 mm 0.00 in0.0 mm 0.11 in2.8 mm
03:20 PM 77.3°F25.2°C 65.9°F18.8°C 68% Calm Calm 1.0 mph1.6 kmh 29.99 in1015.6 mb 0.01 in0.3 mm 0.00 in0.0 mm 0.11 in2.8 mm
03:25 PM 77.9°F25.5°C 66.1°F18.9°C 67% Calm Calm 4.0 mph6.4 kmh 29.98 in1015.2 mb 0.01 in0.3 mm 0.00 in0.0 mm 0.11 in2.8 mm
03:30 PM 78.9°F26.1°C 66.6°F19.2°C 66% 4.0 mph WSW6.4 kmh WSW 4.0 mph6.4 kmh 29.98 in1015.2 mb 0.01 in0.3 mm 0.00 in0.0 mm 0.11 in2.8 mm
03:35 PM 78.8°F26.0°C 65.6°F18.7°C 64% Calm Calm 7.0 mph11.3 kmh 29.98 in1015.2 mb 0.00 in0.0 mm 0.00 in0.0 mm 0.11 in2.8 mm
03:39 PM 78.5°F25.8°C 65.8°F18.8°C 65% 4.0 mph SW6.4 kmh SW 4.0 mph6.4 kmh 29.98 in1015.2 mb 0.00 in0.0 mm 0.00 in0.0 mm 0.11 in2.8 mm
03:45 PM 79.0°F26.1°C 65.8°F18.8°C 64% 2.0 mph SW3.2 kmh SW 4.0 mph6.4 kmh 29.98 in1015.2 mb 0.01 in0.3 mm 0.10 in2.5 mm 0.12 in3.0 mm
03:50 PM 79.3°F26.3°C 66.1°F18.9°C 64% Calm Calm 3.0 mph4.8 kmh 29.98 in1015.2 mb 0.01 in0.3 mm 0.00 in0.0 mm 0.12 in3.0 mm
03:55 PM 79.4°F26.3°C 65.3°F18.5°C 62% 1.0 mph SW1.6 kmh SW 4.0 mph6.4 kmh 29.98 in1015.2 mb 0.01 in0.3 mm 0.00 in0.0 mm 0.12 in3.0 mm
04:00 PM 79.0°F26.1°C 65.8°F18.8°C 64% Calm Calm 2.0 mph3.2 kmh 29.98 in1015.2 mb 0.01 in0.3 mm 0.00 in0.0 mm 0.12 in3.0 mm
04:05 PM 78.7°F25.9°C 66.0°F18.9°C 65% 1.0 mph SW1.6 kmh SW 2.0 mph3.2 kmh 29.98 in1015.2 mb 0.01 in0.3 mm 0.00 in0.0 mm 0.12 in3.0 mm
04:10 PM 79.2°F26.2°C 67.3°F19.6°C 67% 1.0 mph SW1.6 kmh SW 1.0 mph1.6 kmh 29.98 in1015.2 mb 0.01 in0.3 mm 0.00 in0.0 mm 0.12 in3.0 mm
04:15 PM 79.5°F26.4°C 65.4°F18.6°C 62% 4.0 mph WSW6.4 kmh WSW 9.0 mph14.5 kmh 29.98 in1015.2 mb 0.01 in0.3 mm 0.00 in0.0 mm 0.12 in3.0 mm
04:20 PM 78.8°F26.0°C 64.7°F18.2°C 62% Calm Calm -- 29.98 in1015.2 mb 0.01 in0.3 mm 0.00 in0.0 mm 0.12 in3.0 mm
04:25 PM 78.6°F25.9°C 65.0°F18.3°C 63% 2.0 mph SW3.2 kmh SW 2.0 mph3.2 kmh 29.98 in1015.2 mb 0.01 in0.3 mm 0.00 in0.0 mm 0.12 in3.0 mm
04:30 PM 78.9°F26.1°C 64.8°F18.2°C 62% 4.0 mph SW6.4 kmh SW 5.0 mph8.0 kmh 29.98 in1015.2 mb 0.01 in0.3 mm 0.00 in0.0 mm 0.12 in3.0 mm
04:35 PM 78.8°F26.0°C 65.2°F18.4°C 63% 4.0 mph SW6.4 kmh SW 4.0 mph6.4 kmh 29.98 in1015.2 mb 0.01 in0.3 mm 0.00 in0.0 mm 0.12 in3.0 mm
04:40 PM 78.3°F25.7°C 65.1°F18.4°C 64% 3.0 mph SW4.8 kmh SW 3.0 mph4.8 kmh 29.98 in1015.2 mb 0.01 in0.3 mm 0.00 in0.0 mm 0.12 in3.0 mm
04:44 PM 78.3°F25.7°C 65.1°F18.4°C 64% 4.0 mph SW6.4 kmh SW 5.0 mph8.0 kmh 29.98 in1015.2 mb 0.00 in0.0 mm 0.00 in0.0 mm 0.12 in3.0 mm
04:50 PM 78.3°F25.7°C 65.6°F18.7°C 65% Calm Calm 2.0 mph3.2 kmh 29.97 in1014.9 mb 0.00 in0.0 mm 0.00 in0.0 mm 0.12 in3.0 mm
04:55 PM 78.7°F25.9°C 65.5°F18.6°C 64% 2.0 mph SW3.2 kmh SW 6.0 mph9.7 kmh 29.97 in1014.9 mb 0.01 in0.3 mm 0.12 in3.0 mm 0.13 in3.3 mm
05:00 PM 78.5°F25.8°C 64.9°F18.3°C 63% 5.0 mph SW8.0 kmh SW 9.0 mph14.5 kmh 29.97 in1014.9 mb 0.01 in0.3 mm 0.00 in0.0 mm 0.13 in3.3 mm
05:04 PM 78.4°F25.8°C 65.7°F18.7°C 65% 1.0 mph SW1.6 kmh SW 5.0 mph8.0 kmh 29.97 in1014.9 mb 0.01 in0.3 mm 0.00 in0.0 mm 0.13 in3.3 mm
05:09 PM 78.7°F25.9°C 64.6°F18.1°C 62% 1.0 mph SW1.6 kmh SW 4.0 mph6.4 kmh 29.97 in1014.9 mb 0.01 in0.3 mm 0.00 in0.0 mm 0.13 in3.3 mm
05:15 PM 78.9°F26.1°C 65.3°F18.5°C 63% Calm Calm -- 29.98 in1015.2 mb 0.01 in0.3 mm 0.00 in0.0 mm 0.13 in3.3 mm
05:20 PM 79.4°F26.3°C 65.7°F18.7°C 63% 1.0 mph SW1.6 kmh SW 1.0 mph1.6 kmh 29.98 in1015.2 mb 0.01 in0.3 mm 0.00 in0.0 mm 0.13 in3.3 mm
05:25 PM 79.0°F26.1°C 65.8°F18.8°C 64% 1.0 mph NNE1.6 kmh NNE 5.0 mph8.0 kmh 29.98 in1015.2 mb 0.01 in0.3 mm 0.00 in0.0 mm 0.13 in3.3 mm
05:30 PM 77.6°F25.3°C 64.9°F18.3°C 65% 2.0 mph NE3.2 kmh NE 9.0 mph14.5 kmh 29.98 in1015.2 mb 0.01 in0.3 mm 0.00 in0.0 mm 0.13 in3.3 mm
05:35 PM 76.9°F24.9°C 65.1°F18.4°C 67% 5.0 mph NE8.0 kmh NE 5.0 mph8.0 kmh 29.98 in1015.2 mb 0.01 in0.3 mm 0.00 in0.0 mm 0.13 in3.3 mm
05:40 PM 76.4°F24.7°C 65.1°F18.4°C 68% 3.0 mph NNE4.8 kmh NNE 5.0 mph8.0 kmh 29.98 in1015.2 mb 0.01 in0.3 mm 0.00 in0.0 mm 0.13 in3.3 mm
05:45 PM 76.1°F24.5°C 65.2°F18.4°C 69% 1.0 mph N1.6 kmh N 2.0 mph3.2 kmh 29.98 in1015.2 mb 0.01 in0.3 mm 0.00 in0.0 mm 0.13 in3.3 mm
05:50 PM 75.8°F24.3°C 64.9°F18.3°C 69% Calm Calm 3.0 mph4.8 kmh 29.98 in1015.2 mb 0.01 in0.3 mm 0.00 in0.0 mm 0.13 in3.3 mm
05:55 PM 75.8°F24.3°C 64.9°F18.3°C 69% 3.0 mph NE4.8 kmh NE 3.0 mph4.8 kmh 29.98 in1015.2 mb 0.01 in0.3 mm 0.00 in0.0 mm 0.13 in3.3 mm
06:00 PM 75.8°F24.3°C 64.9°F18.3°C 69% 2.0 mph NE3.2 kmh NE 3.0 mph4.8 kmh 29.98 in1015.2 mb 0.00 in0.0 mm 0.00 in0.0 mm 0.13 in3.3 mm
06:05 PM 75.6°F24.2°C 64.7°F18.2°C 69% 1.0 mph E1.6 kmh E 1.0 mph1.6 kmh 29.98 in1015.2 mb 0.00 in0.0 mm 0.00 in0.0 mm 0.13 in3.3 mm
06:10 PM 75.6°F24.2°C 64.7°F18.2°C 69% 3.0 mph NE4.8 kmh NE 4.0 mph6.4 kmh 29.98 in1015.2 mb 0.00 in0.0 mm 0.00 in0.0 mm 0.13 in3.3 mm
06:15 PM 75.7°F24.3°C 64.8°F18.2°C 69% 2.0 mph E3.2 kmh E 2.0 mph3.2 kmh 29.98 in1015.2 mb 0.00 in0.0 mm 0.00 in0.0 mm 0.13 in3.3 mm
06:19 PM 76.1°F24.5°C 65.2°F18.4°C 69% 3.0 mph ENE4.8 kmh ENE 3.0 mph4.8 kmh 29.98 in1015.2 mb 0.00 in0.0 mm 0.00 in0.0 mm 0.13 in3.3 mm
06:25 PM 76.3°F24.6°C 65.0°F18.3°C 68% 1.0 mph ENE1.6 kmh ENE 3.0 mph4.8 kmh 29.98 in1015.2 mb 0.00 in0.0 mm 0.00 in0.0 mm 0.13 in3.3 mm
06:30 PM 76.5°F24.7°C 65.6°F18.7°C 69% Calm Calm 3.0 mph4.8 kmh 29.98 in1015.2 mb 0.01 in0.3 mm 0.12 in3.0 mm 0.14 in3.6 mm
06:35 PM 76.6°F24.8°C 65.3°F18.5°C 68% 1.0 mph NE1.6 kmh NE 3.0 mph4.8 kmh 29.97 in1014.9 mb 0.01 in0.3 mm 0.00 in0.0 mm 0.14 in3.6 mm
06:40 PM 76.6°F24.8°C 64.8°F18.2°C 67% 1.0 mph E1.6 kmh E 4.0 mph6.4 kmh 29.97 in1014.9 mb 0.01 in0.3 mm 0.00 in0.0 mm 0.14 in3.6 mm
06:45 PM 76.4°F24.7°C 65.1°F18.4°C 68% Calm Calm 3.0 mph4.8 kmh 29.97 in1014.9 mb 0.01 in0.3 mm 0.00 in0.0 mm 0.14 in3.6 mm
06:50 PM 76.2°F24.6°C 64.9°F18.3°C 68% Calm Calm -- 29.97 in1014.9 mb 0.01 in0.3 mm 0.00 in0.0 mm 0.14 in3.6 mm
06:55 PM 76.1°F24.5°C 64.8°F18.2°C 68% Calm Calm -- 29.97 in1014.9 mb 0.01 in0.3 mm 0.00 in0.0 mm 0.14 in3.6 mm
07:00 PM 76.1°F24.5°C 64.8°F18.2°C 68% Calm Calm 2.0 mph3.2 kmh 29.97 in1014.9 mb 0.01 in0.3 mm 0.00 in0.0 mm 0.14 in3.6 mm
07:05 PM 76.0°F24.4°C 65.1°F18.4°C 69% 1.0 mph NE1.6 kmh NE 2.0 mph3.2 kmh 29.97 in1014.9 mb 0.01 in0.3 mm 0.00 in0.0 mm 0.14 in3.6 mm
07:10 PM 76.0°F24.4°C 65.1°F18.4°C 69% Calm Calm 2.0 mph3.2 kmh 29.97 in1014.9 mb 0.01 in0.3 mm 0.00 in0.0 mm 0.14 in3.6 mm
07:15 PM 76.1°F24.5°C 65.2°F18.4°C 69% Calm Calm -- 29.98 in1015.2 mb 0.01 in0.3 mm 0.00 in0.0 mm 0.14 in3.6 mm
07:20 PM 76.1°F24.5°C 65.2°F18.4°C 69% Calm Calm 2.0 mph3.2 kmh 29.98 in1015.2 mb 0.01 in0.3 mm 0.00 in0.0 mm 0.14 in3.6 mm
07:25 PM 76.1°F24.5°C 65.2°F18.4°C 69% 2.0 mph NE3.2 kmh NE 2.0 mph3.2 kmh 29.97 in1014.9 mb 0.01 in0.3 mm 0.00 in0.0 mm 0.14 in3.6 mm
07:30 PM 76.1°F24.5°C 65.2°F18.4°C 69% Calm Calm 1.0 mph1.6 kmh 29.98 in1015.2 mb 0.01 in0.3 mm 0.00 in0.0 mm 0.14 in3.6 mm
07:34 PM 76.0°F24.4°C 65.1°F18.4°C 69% Calm Calm -- 29.98 in1015.2 mb 0.00 in0.0 mm 0.00 in0.0 mm 0.14 in3.6 mm
07:39 PM 75.9°F24.4°C 65.0°F18.3°C 69% Calm Calm -- 29.98 in1015.2 mb 0.00 in0.0 mm 0.00 in0.0 mm 0.14 in3.6 mm
07:45 PM 75.8°F24.3°C 64.9°F18.3°C 69% Calm Calm 1.0 mph1.6 kmh 29.97 in1014.9 mb 0.00 in0.0 mm 0.00 in0.0 mm 0.14 in3.6 mm
07:50 PM 75.8°F24.3°C 64.9°F18.3°C 69% Calm Calm -- 29.97 in1014.9 mb 0.00 in0.0 mm 0.00 in0.0 mm 0.14 in3.6 mm
07:55 PM 75.9°F24.4°C 65.0°F18.3°C 69% Calm Calm -- 29.98 in1015.2 mb 0.00 in0.0 mm 0.00 in0.0 mm 0.14 in3.6 mm
08:00 PM 75.9°F24.4°C 65.4°F18.6°C 70% Calm Calm -- 29.97 in1014.9 mb 0.00 in0.0 mm 0.00 in0.0 mm 0.14 in3.6 mm
08:05 PM 75.9°F24.4°C 65.4°F18.6°C 70% Calm Calm -- 29.98 in1015.2 mb 0.01 in0.3 mm 0.12 in3.0 mm 0.15 in3.8 mm
08:10 PM 75.8°F24.3°C 65.3°F18.5°C 70% Calm Calm -- 29.98 in1015.2 mb 0.01 in0.3 mm 0.00 in0.0 mm 0.15 in3.8 mm
08:15 PM 75.7°F24.3°C 64.8°F18.2°C 69% Calm Calm -- 29.98 in1015.2 mb 0.01 in0.3 mm 0.00 in0.0 mm 0.15 in3.8 mm
08:19 PM 75.6°F24.2°C 65.1°F18.4°C 70% Calm Calm -- 29.98 in1015.2 mb 0.01 in0.3 mm 0.00 in0.0 mm 0.15 in3.8 mm
08:24 PM 75.4°F24.1°C 65.4°F18.6°C 71% Calm Calm -- 29.98 in1015.2 mb 0.01 in0.3 mm 0.00 in0.0 mm 0.15 in3.8 mm
08:30 PM 75.3°F24.1°C 66.1°F18.9°C 73% Calm Calm -- 29.98 in1015.2 mb 0.01 in0.3 mm 0.00 in0.0 mm 0.15 in3.8 mm
08:35 PM 75.2°F24.0°C 66.0°F18.9°C 73% Calm Calm -- 29.98 in1015.2 mb 0.01 in0.3 mm 0.00 in0.0 mm 0.15 in3.8 mm
08:39 PM 75.1°F23.9°C 65.9°F18.8°C 73% Calm Calm -- 29.98 in1015.2 mb 0.01 in0.3 mm 0.00 in0.0 mm 0.15 in3.8 mm
08:45 PM 74.9°F23.8°C 65.7°F18.7°C 73% Calm Calm -- 29.98 in1015.2 mb 0.01 in0.3 mm 0.00 in0.0 mm 0.15 in3.8 mm
08:50 PM 74.7°F23.7°C 65.5°F18.6°C 73% Calm Calm -- 29.98 in1015.2 mb 0.01 in0.3 mm 0.00 in0.0 mm 0.15 in3.8 mm
08:55 PM 74.5°F23.6°C 65.7°F18.7°C 74% Calm Calm -- 29.99 in1015.6 mb 0.01 in0.3 mm 0.00 in0.0 mm 0.15 in3.8 mm
09:00 PM 74.4°F23.6°C 65.6°F18.7°C 74% Calm Calm -- 29.99 in1015.6 mb 0.01 in0.3 mm 0.00 in0.0 mm 0.15 in3.8 mm
09:05 PM 74.0°F23.3°C 65.2°F18.4°C 74% Calm Calm -- 29.98 in1015.2 mb 0.00 in0.0 mm 0.00 in0.0 mm 0.15 in3.8 mm
09:10 PM 73.9°F23.3°C 65.5°F18.6°C 75% Calm Calm -- 29.99 in1015.6 mb 0.00 in0.0 mm 0.00 in0.0 mm 0.15 in3.8 mm
09:15 PM 73.8°F23.2°C 65.8°F18.8°C 76% Calm Calm -- 29.99 in1015.6 mb 0.00 in0.0 mm 0.00 in0.0 mm 0.15 in3.8 mm
09:19 PM 73.7°F23.2°C 66.1°F18.9°C 77% Calm Calm -- 29.99 in1015.6 mb 0.00 in0.0 mm 0.00 in0.0 mm 0.15 in3.8 mm
09:25 PM 73.5°F23.1°C 65.9°F18.8°C 77% Calm Calm -- 29.99 in1015.6 mb 0.00 in0.0 mm 0.00 in0.0 mm 0.15 in3.8 mm
09:30 PM 73.1°F22.8°C 65.5°F18.6°C 77% Calm Calm -- 29.99 in1015.6 mb 0.00 in0.0 mm 0.00 in0.0 mm 0.15 in3.8 mm
09:35 PM 72.8°F22.7°C 65.6°F18.7°C 78% Calm Calm -- 29.99 in1015.6 mb 0.00 in0.0 mm 0.00 in0.0 mm 0.15 in3.8 mm
09:40 PM 72.5°F22.5°C 65.6°F18.7°C 79% Calm Calm -- 29.99 in1015.6 mb 0.00 in0.0 mm 0.00 in0.0 mm 0.15 in3.8 mm
09:44 PM 72.2°F22.3°C 65.7°F18.7°C 80% Calm Calm -- 29.99 in1015.6 mb 0.00 in0.0 mm 0.00 in0.0 mm 0.15 in3.8 mm
09:50 PM 72.0°F22.2°C 65.5°F18.6°C 80% Calm Calm -- 29.99 in1015.6 mb 0.00 in0.0 mm 0.00 in0.0 mm 0.15 in3.8 mm
09:55 PM 71.7°F22.1°C 65.6°F18.7°C 81% Calm Calm -- 30.00 in1015.9 mb 0.00 in0.0 mm 0.00 in0.0 mm 0.15 in3.8 mm
10:00 PM 71.5°F21.9°C 65.4°F18.6°C 81% Calm Calm -- 30.00 in1015.9 mb 0.00 in0.0 mm 0.00 in0.0 mm 0.15 in3.8 mm
10:05 PM 71.3°F21.8°C 65.5°F18.6°C 82% Calm Calm -- 30.00 in1015.9 mb 0.00 in0.0 mm 0.00 in0.0 mm 0.15 in3.8 mm
10:10 PM 71.1°F21.7°C 65.3°F18.5°C 82% Calm Calm -- 30.00 in1015.9 mb 0.00 in0.0 mm 0.00 in0.0 mm 0.15 in3.8 mm
10:15 PM 71.0°F21.7°C 65.6°F18.7°C 83% Calm Calm -- 30.00 in1015.9 mb 0.00 in0.0 mm 0.00 in0.0 mm 0.15 in3.8 mm
10:20 PM 70.9°F21.6°C 65.5°F18.6°C 83% Calm Calm -- 30.00 in1015.9 mb 0.01 in0.3 mm 0.12 in3.0 mm 0.16 in4.1 mm
10:24 PM 70.7°F21.5°C 65.3°F18.5°C 83% Calm Calm -- 30.00 in1015.9 mb 0.01 in0.3 mm 0.00 in0.0 mm 0.16 in4.1 mm
10:30 PM 70.6°F21.4°C 65.2°F18.4°C 83% Calm Calm -- 30.00 in1015.9 mb 0.01 in0.3 mm 0.00 in0.0 mm 0.16 in4.1 mm
10:35 PM 70.4°F21.3°C 65.0°F18.3°C 83% Calm Calm -- 30.01 in1016.3 mb 0.01 in0.3 mm 0.00 in0.0 mm 0.16 in4.1 mm
10:39 PM 70.1°F21.2°C 65.1°F18.4°C 84% Calm Calm -- 30.01 in1016.3 mb 0.01 in0.3 mm 0.00 in0.0 mm 0.16 in4.1 mm
10:44 PM 69.9°F21.1°C 64.9°F18.3°C 84% Calm Calm -- 30.01 in1016.3 mb 0.01 in0.3 mm 0.00 in0.0 mm 0.16 in4.1 mm
10:50 PM 69.7°F20.9°C 65.0°F18.3°C 85% Calm Calm -- 30.01 in1016.3 mb 0.01 in0.3 mm 0.00 in0.0 mm 0.16 in4.1 mm
10:55 PM 69.5°F20.8°C 64.8°F18.2°C 85% Calm Calm -- 30.01 in1016.3 mb 0.01 in0.3 mm 0.00 in0.0 mm 0.16 in4.1 mm
11:00 PM 69.3°F20.7°C 64.6°F18.1°C 85% Calm Calm -- 30.01 in1016.3 mb 0.01 in0.3 mm 0.00 in0.0 mm 0.16 in4.1 mm
11:05 PM 69.1°F20.6°C 64.7°F18.2°C 86% Calm Calm -- 30.01 in1016.3 mb 0.01 in0.3 mm 0.00 in0.0 mm 0.16 in4.1 mm
11:10 PM 68.9°F20.5°C 64.6°F18.1°C 86% Calm Calm -- 30.01 in1016.3 mb 0.01 in0.3 mm 0.00 in0.0 mm 0.16 in4.1 mm
11:14 PM 68.7°F20.4°C 64.4°F18.0°C 86% Calm Calm -- 30.01 in1016.3 mb 0.01 in0.3 mm 0.00 in0.0 mm 0.16 in4.1 mm
11:19 PM 68.5°F20.3°C 64.5°F18.1°C 87% Calm Calm -- 30.01 in1016.3 mb 0.00 in0.0 mm 0.00 in0.0 mm 0.16 in4.1 mm
11:25 PM 68.3°F20.2°C 64.3°F17.9°C 87% Calm Calm -- 30.01 in1016.3 mb 0.00 in0.0 mm 0.00 in0.0 mm 0.16 in4.1 mm
11:30 PM 68.3°F20.2°C 64.6°F18.1°C 88% Calm Calm -- 30.01 in1016.3 mb 0.00 in0.0 mm 0.00 in0.0 mm 0.16 in4.1 mm
11:34 PM 68.1°F20.1°C 64.4°F18.0°C 88% Calm Calm -- 30.01 in1016.3 mb 0.00 in0.0 mm 0.00 in0.0 mm 0.16 in4.1 mm
11:39 PM 68.0°F20.0°C 64.3°F17.9°C 88% Calm Calm -- 30.01 in1016.3 mb 0.00 in0.0 mm 0.00 in0.0 mm 0.16 in4.1 mm
11:45 PM 67.9°F19.9°C 64.2°F17.9°C 88% Calm Calm -- 30.01 in1016.3 mb 0.00 in0.0 mm 0.00 in0.0 mm 0.16 in4.1 mm
11:50 PM 67.8°F19.9°C 64.4°F18.0°C 89% Calm Calm -- 30.01 in1016.3 mb 0.00 in0.0 mm 0.00 in0.0 mm 0.16 in4.1 mm
11:55 PM 67.7°F19.8°C 64.4°F18.0°C 89% Calm Calm -- 30.01 in1016.3 mb 0.00 in0.0 mm 0.00 in0.0 mm 0.16 in4.1 mm